Pembroke, Massachusetts
Current Conditions -  °F | °C
As of 4:52 AM on Saturday 25 Oct 2014 (Local Time) from KPYM Reporting Station
Broken Clouds Broken Clouds  
Wind Chill: 40°   Ceiling: 6000
Heat Index: 44°   Visibility: 10mi
Dew Point: 42°   Wind: 7mph
Humidity: 93%   Direction: 290°WNW
Pressure: 29.75"   Gusts: NA
Location:  42.07°N, 70.81°W
Report Text: KPYM 250852Z AUTO 29006KT 10SM BKN060 07/06 A2975 RMK AO2 SLP076 T00670056 53001
Loading
Personal Weather Stations






























Interactive Weather Map New forecast layout! Learn more

10-Day Weather Forecast

Advertisements
Track Severe Weather on mobile